Time;durP1;ratioP1;P1;durP2;ratioP2;P2;SDS_P1;SDS_P2;PMS_P1;PMS_P2;Temp;Humidity;BMP_temperature;BMP_pressure;BME280_temperature;BME280_humidity;BME280_pressure;Samples;Min_cycle;Max_cycle;Signal;HPM_P1;HPM_P2
2023/10/25 00:02:14;;;;;;;1.23;1.00;;;;;;;;;;4959320;28;20054;-72
2023/10/25 00:04:39;;;;;;;1.10;1.10;;;;;;;;;;4960201;28;20505;-71
2023/10/25 00:07:05;;;;;;;1.42;1.00;;;;;;;;;;4959688;28;20538;-71
2023/10/25 00:09:30;;;;;;;0.90;0.90;;;;;;;;;;4959312;28;20628;-72
2023/10/25 00:11:55;;;;;;;3.10;1.05;;;;;;;;;;4960440;28;20472;-72
2023/10/25 00:14:21;;;;;;;1.30;0.95;;;;;;;;;;4959005;28;20074;-72
2023/10/25 00:16:47;;;;;;;1.90;1.20;;;;;;;;;;4959754;28;20074;-72
2023/10/25 00:19:12;;;;;;;1.13;1.02;;;;;;;;;;4957918;28;20054;-72
2023/10/25 00:21:37;;;;;;;1.05;0.90;;;;;;;;;;4959500;28;20046;-72
2023/10/25 00:24:03;;;;;;;1.10;0.90;;;;;;;;;;4958944;28;20460;-73
2023/10/25 00:26:29;;;;;;;2.05;1.00;;;;;;;;;;4959877;28;20097;-72
2023/10/25 00:28:55;;;;;;;0.73;0.73;;;;;;;;;;4958052;28;20175;-72
2023/10/25 00:31:20;;;;;;;0.85;0.85;;;;;;;;;;4959917;28;20086;-73
2023/10/25 00:33:46;;;;;;;1.27;1.10;;;;;;;;;;4958107;28;20404;-73
2023/10/25 00:36:11;;;;;;;2.03;1.40;;;;;;;;;;4958677;28;20043;-72
2023/10/25 00:38:37;;;;;;;1.10;1.02;;;;;;;;;;4957629;28;20042;-72
2023/10/25 00:41:02;;;;;;;1.23;1.13;;;;;;;;;;4958423;28;20138;-72
2023/10/25 00:43:28;;;;;;;2.63;1.30;;;;;;;;;;4942263;28;20043;-72
2023/10/25 00:46:12;;;;;;;2.97;1.50;;;;;;;;;;4957687;28;20043;-71
2023/10/25 00:48:42;;;;;;;2.33;1.50;;;;;;;;;;4958106;28;20054;-72
2023/10/25 00:51:09;;;;;;;2.88;1.80;;;;;;;;;;4958909;28;20054;-72
2023/10/25 00:53:38;;;;;;;2.25;1.77;;;;;;;;;;4941524;28;20500;-72
2023/10/25 00:56:07;;;;;;;1.60;1.50;;;;;;;;;;4958584;28;20518;-71
2023/10/25 00:58:33;;;;;;;2.13;1.92;;;;;;;;;;4941899;28;20078;-72
2023/10/25 01:01:00;;;;;;;2.15;1.70;;;;;;;;;;4957672;28;20954;-71
2023/10/25 01:03:25;;;;;;;1.83;1.73;;;;;;;;;;4958412;28;20047;-72
2023/10/25 01:05:51;;;;;;;2.13;1.48;;;;;;;;;;4957528;28;20046;-72
2023/10/25 01:08:20;;;;;;;1.42;1.33;;;;;;;;;;4958367;28;20492;-71
2023/10/25 01:10:50;;;;;;;1.40;1.30;;;;;;;;;;4958155;28;20038;-70
2023/10/25 01:13:17;;;;;;;1.58;1.33;;;;;;;;;;4957503;28;20054;-71
2023/10/25 01:15:42;;;;;;;2.20;1.45;;;;;;;;;;4952742;28;21944;-71
2023/10/25 01:18:09;;;;;;;1.70;1.60;;;;;;;;;;4958335;28;20086;-71
2023/10/25 01:20:35;;;;;;;2.60;1.60;;;;;;;;;;4957756;28;20556;-71
2023/10/25 01:23:00;;;;;;;1.77;1.67;;;;;;;;;;4957516;28;20248;-71
2023/10/25 01:25:26;;;;;;;1.65;1.50;;;;;;;;;;4957901;28;20500;-72
2023/10/25 01:27:51;;;;;;;2.33;1.73;;;;;;;;;;4957695;28;20085;-71
2023/10/25 01:30:18;;;;;;;2.38;1.92;;;;;;;;;;4956678;28;20106;-70
2023/10/25 01:32:43;;;;;;;1.80;1.70;;;;;;;;;;4940195;28;20054;-69
2023/10/25 01:35:10;;;;;;;2.35;2.13;;;;;;;;;;4956139;28;20054;-69
2023/10/25 01:37:36;;;;;;;2.53;2.33;;;;;;;;;;4939681;28;20043;-69
2023/10/25 01:40:03;;;;;;;2.88;2.55;;;;;;;;;;4956732;28;20190;-71
2023/10/25 01:42:29;;;;;;;4.68;2.50;;;;;;;;;;4956171;28;20047;-70
2023/10/25 01:44:54;;;;;;;3.15;2.28;;;;;;;;;;4958184;28;20915;-70
2023/10/25 01:47:19;;;;;;;3.70;2.78;;;;;;;;;;4958042;28;20058;-71
2023/10/25 01:49:45;;;;;;;3.03;2.72;;;;;;;;;;4957097;28;20046;-69
2023/10/25 01:52:10;;;;;;;3.28;2.83;;;;;;;;;;4956943;28;20050;-71
2023/10/25 01:54:36;;;;;;;3.03;2.78;;;;;;;;;;4958761;28;20050;-70
2023/10/25 01:57:01;;;;;;;3.55;3.22;;;;;;;;;;4958097;28;20408;-71
2023/10/25 01:59:28;;;;;;;3.50;3.20;;;;;;;;;;4958356;28;20061;-70
2023/10/25 02:01:53;;;;;;;4.75;3.35;;;;;;;;;;4960956;28;20050;-71
2023/10/25 02:04:19;;;;;;;3.90;3.22;;;;;;;;;;4960261;28;20065;-71
2023/10/25 02:06:45;;;;;;;8.23;3.45;;;;;;;;;;4961108;28;20051;-71
2023/10/25 02:09:11;;;;;;;3.95;3.30;;;;;;;;;;4960725;28;20051;-71
2023/10/25 02:11:37;;;;;;;6.43;3.63;;;;;;;;;;4960400;28;20073;-71
2023/10/25 02:14:02;;;;;;;4.20;3.40;;;;;;;;;;4961216;28;20071;-69
2023/10/25 02:16:28;;;;;;;3.63;3.30;;;;;;;;;;4961662;28;20043;-69
2023/10/25 02:18:54;;;;;;;3.72;3.28;;;;;;;;;;4962126;28;20544;-70
2023/10/25 02:21:19;;;;;;;4.57;4.05;;;;;;;;;;4960899;28;20050;-70
2023/10/25 02:23:45;;;;;;;4.80;4.00;;;;;;;;;;4959963;28;20053;-71
2023/10/25 02:26:10;;;;;;;5.22;3.65;;;;;;;;;;4960662;28;20073;-70
2023/10/25 02:28:35;;;;;;;5.97;3.70;;;;;;;;;;4960735;28;20042;-71
2023/10/25 02:31:01;;;;;;;4.05;3.75;;;;;;;;;;4962058;28;20457;-70
2023/10/25 02:33:27;;;;;;;4.47;4.05;;;;;;;;;;4960863;28;20047;-70
2023/10/25 02:35:53;;;;;;;6.97;4.03;;;;;;;;;;4959785;28;20070;-70
2023/10/25 02:38:19;;;;;;;5.72;3.70;;;;;;;;;;4961447;28;20057;-70
2023/10/25 02:40:45;;;;;;;5.53;3.83;;;;;;;;;;4960166;28;20047;-70
2023/10/25 02:43:10;;;;;;;4.63;4.03;;;;;;;;;;4960539;28;20047;-70
2023/10/25 02:45:35;;;;;;;4.88;4.30;;;;;;;;;;4959798;28;20146;-71
2023/10/25 02:48:01;;;;;;;4.93;3.65;;;;;;;;;;4959545;28;20061;-70
2023/10/25 02:50:27;;;;;;;4.20;3.70;;;;;;;;;;4960385;28;20046;-70
2023/10/25 02:52:52;;;;;;;4.45;3.90;;;;;;;;;;4961523;28;20046;-71
2023/10/25 02:55:18;;;;;;;4.95;3.85;;;;;;;;;;4960440;28;20056;-70
2023/10/25 02:57:43;;;;;;;6.10;3.92;;;;;;;;;;4959604;28;20057;-70
2023/10/25 03:00:12;;;;;;;4.10;3.70;;;;;;;;;;4959433;28;20141;-72
2023/10/25 03:02:38;;;;;;;5.57;4.22;;;;;;;;;;4961079;28;20616;-70
2023/10/25 03:05:04;;;;;;;4.30;3.72;;;;;;;;;;4960492;28;20050;-70
2023/10/25 03:07:29;;;;;;;4.88;3.92;;;;;;;;;;4959986;28;20050;-69
2023/10/25 03:09:55;;;;;;;4.63;3.60;;;;;;;;;;4958620;28;20141;-71
2023/10/25 03:12:21;;;;;;;4.35;3.80;;;;;;;;;;4957505;28;20059;-70
2023/10/25 03:14:46;;;;;;;7.45;3.50;;;;;;;;;;4959725;28;20516;-69
2023/10/25 03:17:12;;;;;;;5.05;3.35;;;;;;;;;;4960059;28;20058;-69
2023/10/25 03:19:37;;;;;;;4.30;3.33;;;;;;;;;;4960191;28;20050;-70
2023/10/25 03:22:06;;;;;;;3.92;3.28;;;;;;;;;;4959234;28;20070;-70
2023/10/25 03:24:32;;;;;;;5.90;3.63;;;;;;;;;;4960896;28;20116;-70
2023/10/25 03:26:58;;;;;;;3.72;3.30;;;;;;;;;;4943846;28;20059;-68
2023/10/25 03:29:24;;;;;;;3.83;3.40;;;;;;;;;;4959610;28;20047;-69
2023/10/25 03:31:50;;;;;;;4.43;3.30;;;;;;;;;;4958272;28;20039;-72
2023/10/25 03:34:18;;;;;;;4.40;3.70;;;;;;;;;;4959523;28;20508;-70
2023/10/25 03:36:44;;;;;;;4.65;3.38;;;;;;;;;;4959556;28;20053;-70
2023/10/25 03:39:14;;;;;;;4.57;3.38;;;;;;;;;;4960518;28;20061;-71
2023/10/25 03:41:41;;;;;;;3.55;3.08;;;;;;;;;;4958871;28;20050;-70
2023/10/25 03:44:06;;;;;;;3.42;3.13;;;;;;;;;;4960803;28;20063;-70
2023/10/25 03:46:32;;;;;;;3.97;2.97;;;;;;;;;;4958741;28;20047;-70
2023/10/25 03:48:57;;;;;;;5.07;2.70;;;;;;;;;;4959078;28;20038;-70
2023/10/25 03:51:23;;;;;;;4.13;2.72;;;;;;;;;;4960657;28;20050;-71
2023/10/25 03:53:49;;;;;;;2.92;2.70;;;;;;;;;;4951926;28;20134;-69
2023/10/25 03:56:14;;;;;;;4.55;2.83;;;;;;;;;;4961079;28;20504;-70
2023/10/25 03:58:40;;;;;;;3.08;2.38;;;;;;;;;;4958862;28;20142;-69
2023/10/25 04:01:06;;;;;;;2.75;2.50;;;;;;;;;;4959014;28;20452;-71
2023/10/25 04:03:31;;;;;;;6.65;2.88;;;;;;;;;;4958579;28;20467;-70
2023/10/25 04:05:57;;;;;;;4.20;2.83;;;;;;;;;;4960436;28;20146;-71
2023/10/25 04:08:23;;;;;;;2.72;2.53;;;;;;;;;;4959002;28;20087;-71
2023/10/25 04:10:52;;;;;;;2.97;2.67;;;;;;;;;;4958923;28;20054;-71
2023/10/25 04:13:19;;;;;;;3.17;2.75;;;;;;;;;;4960124;28;20078;-71
2023/10/25 04:15:57;;;;;;;3.65;2.60;;;;;;;;;;4958172;28;20163;-72
2023/10/25 04:18:28;;;;;;;2.67;2.47;;;;;;;;;;4960156;28;20043;-72
2023/10/25 04:20:56;;;;;;;3.03;2.75;;;;;;;;;;4958018;28;20079;-70
2023/10/25 04:23:23;;;;;;;3.42;2.45;;;;;;;;;;4957766;28;20125;-71
2023/10/25 04:25:49;;;;;;;5.57;2.92;;;;;;;;;;4957639;28;20038;-71
2023/10/25 04:28:16;;;;;;;6.35;2.90;;;;;;;;;;4959400;28;20578;-71
2023/10/25 04:30:42;;;;;;;2.55;2.35;;;;;;;;;;4958813;28;20096;-70
2023/10/25 04:33:08;;;;;;;3.33;2.40;;;;;;;;;;4969494;28;20122;-70
2023/10/25 04:35:33;;;;;;;3.08;2.75;;;;;;;;;;4973010;28;21652;-72
2023/10/25 04:37:59;;;;;;;2.60;2.40;;;;;;;;;;4976484;28;20164;-71
2023/10/25 04:40:24;;;;;;;2.30;2.10;;;;;;;;;;4977442;28;20084;-71
2023/10/25 04:42:50;;;;;;;2.92;2.15;;;;;;;;;;4966734;28;20567;-71
2023/10/25 04:45:16;;;;;;;6.07;2.05;;;;;;;;;;4959777;28;20185;-71
2023/10/25 04:47:42;;;;;;;4.03;2.30;;;;;;;;;;4956262;28;20057;-70
2023/10/25 04:50:08;;;;;;;2.50;2.30;;;;;;;;;;4956864;28;20073;-71
2023/10/25 04:52:33;;;;;;;2.17;1.98;;;;;;;;;;4958456;28;20051;-71
2023/10/25 04:54:58;;;;;;;2.17;1.98;;;;;;;;;;4941449;28;20046;-71
2023/10/25 04:57:24;;;;;;;3.50;2.00;;;;;;;;;;4958550;28;20042;-71
2023/10/25 04:59:50;;;;;;;2.28;2.08;;;;;;;;;;4971188;28;20039;-71
2023/10/25 05:02:16;;;;;;;2.17;1.98;;;;;;;;;;4957253;28;20051;-70
2023/10/25 05:04:41;;;;;;;2.15;1.95;;;;;;;;;;4954981;28;20050;-71
2023/10/25 05:07:08;;;;;;;2.33;2.00;;;;;;;;;;4957407;28;20565;-71
2023/10/25 05:09:34;;;;;;;2.55;1.52;;;;;;;;;;4957432;28;20150;-71
2023/10/25 05:12:03;;;;;;;1.90;1.40;;;;;;;;;;4957641;28;20157;-71
2023/10/25 05:14:29;;;;;;;1.67;1.45;;;;;;;;;;4955293;28;20923;-71
2023/10/25 05:16:55;;;;;;;4.80;1.60;;;;;;;;;;4958560;28;20051;-71
2023/10/25 05:19:21;;;;;;;1.83;1.70;;;;;;;;;;4959013;28;20049;-70
2023/10/25 05:21:51;;;;;;;1.55;1.45;;;;;;;;;;4957511;28;20070;-70
2023/10/25 05:24:17;;;;;;;4.50;1.85;;;;;;;;;;4958814;28;20420;-69
2023/10/25 05:26:44;;;;;;;1.70;1.60;;;;;;;;;;4958512;28;20049;-72
2023/10/25 05:29:10;;;;;;;1.60;1.50;;;;;;;;;;4958251;28;20042;-72
2023/10/25 05:31:44;;;;;;;2.08;1.88;;;;;;;;;;4955375;28;20098;-72
2023/10/25 05:34:10;;;;;;;4.82;2.60;;;;;;;;;;4975464;28;21144;-71
2023/10/25 05:36:38;;;;;;;2.60;2.20;;;;;;;;;;4963484;28;20057;-71
2023/10/25 05:39:05;;;;;;;2.60;2.40;;;;;;;;;;4977657;28;20136;-71
2023/10/25 05:41:36;;;;;;;3.67;2.63;;;;;;;;;;4962723;28;20513;-76
2023/10/25 05:44:13;;;;;;;5.30;2.80;;;;;;;;;;4962106;28;20177;-70
2023/10/25 05:46:38;;;;;;;2.67;2.47;;;;;;;;;;4963132;28;20446;-69
2023/10/25 05:49:04;;;;;;;2.40;2.20;;;;;;;;;;4962948;28;20492;-70
2023/10/25 05:51:30;;;;;;;4.68;3.10;;;;;;;;;;4963130;28;20105;-69
2023/10/25 05:53:56;;;;;;;2.53;2.33;;;;;;;;;;4961685;28;20058;-70
2023/10/25 05:56:26;;;;;;;3.55;2.72;;;;;;;;;;4963168;28;20055;-70
2023/10/25 05:58:55;;;;;;;2.55;2.33;;;;;;;;;;4962355;28;20097;-71
2023/10/25 06:01:44;;;;;;;3.85;2.58;;;;;;;;;;4962504;28;20112;-70
2023/10/25 06:04:11;;;;;;;2.42;2.22;;;;;;;;;;4991533;28;20046;-70
2023/10/25 06:06:38;;;;;;;2.85;2.60;;;;;;;;;;4982401;28;20053;-69
2023/10/25 06:09:04;;;;;;;2.83;2.63;;;;;;;;;;4981638;28;20125;-70
2023/10/25 06:11:30;;;;;;;2.67;2.47;;;;;;;;;;4982539;28;20053;-71
2023/10/25 06:13:56;;;;;;;3.88;2.53;;;;;;;;;;4981215;28;20149;-71
2023/10/25 06:16:21;;;;;;;2.88;2.60;;;;;;;;;;4979522;28;20157;-70
2023/10/25 06:18:46;;;;;;;2.90;2.22;;;;;;;;;;4981571;28;20097;-70
2023/10/25 06:21:12;;;;;;;2.65;2.45;;;;;;;;;;4971835;28;20592;-70
2023/10/25 06:23:37;;;;;;;5.15;3.60;;;;;;;;;;4981332;28;20403;-69
2023/10/25 06:26:03;;;;;;;7.15;5.45;;;;;;;;;;4981346;28;20038;-71
2023/10/25 06:28:30;;;;;;;6.03;3.97;;;;;;;;;;4980918;28;20047;-70
2023/10/25 06:30:55;;;;;;;4.07;3.13;;;;;;;;;;4981019;28;20042;-70
2023/10/25 06:33:20;;;;;;;3.65;3.30;;;;;;;;;;4980662;28;20534;-70
2023/10/25 06:35:46;;;;;;;5.65;4.03;;;;;;;;;;4979333;28;20058;-70
2023/10/25 06:38:12;;;;;;;8.55;4.40;;;;;;;;;;4979164;28;20081;-69
2023/10/25 06:40:37;;;;;;;6.88;4.35;;;;;;;;;;4981417;28;20062;-69
2023/10/25 06:43:04;;;;;;;4.88;3.33;;;;;;;;;;4981192;28;20979;-70
2023/10/25 06:45:29;;;;;;;4.18;3.13;;;;;;;;;;4981332;28;20042;-70
2023/10/25 06:47:56;;;;;;;3.80;3.45;;;;;;;;;;4980162;28;20116;-70
2023/10/25 06:50:25;;;;;;;3.90;2.92;;;;;;;;;;4980445;28;20547;-70
2023/10/25 06:52:51;;;;;;;3.30;2.97;;;;;;;;;;4980941;28;20076;-70
2023/10/25 06:55:16;;;;;;;5.47;3.85;;;;;;;;;;4981347;28;20129;-71
2023/10/25 06:57:42;;;;;;;3.83;3.08;;;;;;;;;;4980917;28;20030;-72
2023/10/25 07:00:09;;;;;;;4.00;3.30;;;;;;;;;;4974071;28;20811;-70
2023/10/25 07:02:49;;;;;;;3.22;2.92;;;;;;;;;;4996003;28;20038;-71
2023/10/25 07:05:15;;;;;;;3.53;3.22;;;;;;;;;;4980952;28;20046;-70
2023/10/25 07:07:43;;;;;;;6.93;3.35;;;;;;;;;;4980447;28;20053;-70
2023/10/25 07:10:10;;;;;;;2.78;2.40;;;;;;;;;;4980057;28;20403;-69
2023/10/25 07:12:36;;;;;;;2.67;1.75;;;;;;;;;;4972014;28;20050;-69
2023/10/25 07:15:01;;;;;;;1.55;1.40;;;;;;;;;;4961317;28;20047;-70
2023/10/25 07:17:27;;;;;;;2.80;1.70;;;;;;;;;;4961167;28;20035;-69
2023/10/25 07:19:53;;;;;;;1.60;1.27;;;;;;;;;;4960705;28;20714;-71
2023/10/25 07:22:19;;;;;;;2.90;1.40;;;;;;;;;;4960628;28;20042;-69
2023/10/25 07:24:45;;;;;;;1.40;1.30;;;;;;;;;;4961833;28;20051;-71
2023/10/25 07:27:10;;;;;;;0.85;0.85;;;;;;;;;;4961220;28;20039;-70
2023/10/25 07:29:36;;;;;;;1.17;1.08;;;;;;;;;;4959254;28;20506;-70
2023/10/25 07:32:05;;;;;;;1.15;1.05;;;;;;;;;;4960968;28;20046;-70
2023/10/25 07:34:31;;;;;;;1.20;1.10;;;;;;;;;;4960526;28;20061;-70
2023/10/25 07:36:56;;;;;;;1.23;1.13;;;;;;;;;;4961023;28;20062;-70
2023/10/25 07:39:22;;;;;;;1.20;1.10;;;;;;;;;;4961124;28;20112;-68
2023/10/25 07:41:47;;;;;;;1.33;1.05;;;;;;;;;;4960201;28;20045;-68
2023/10/25 07:44:13;;;;;;;2.00;1.08;;;;;;;;;;4958494;28;20150;-70
2023/10/25 07:46:38;;;;;;;1.15;1.05;;;;;;;;;;4959903;28;20059;-68
2023/10/25 07:49:04;;;;;;;1.27;1.17;;;;;;;;;;4960663;28;20824;-69
2023/10/25 07:51:29;;;;;;;3.33;1.23;;;;;;;;;;4960678;28;20070;-70
2023/10/25 07:53:55;;;;;;;1.38;1.27;;;;;;;;;;4959783;28;20057;-69
2023/10/25 07:56:20;;;;;;;1.20;1.20;;;;;;;;;;4959652;28;20248;-71
2023/10/25 07:58:46;;;;;;;1.10;1.08;;;;;;;;;;4958856;28;20058;-70
2023/10/25 08:01:14;;;;;;;1.15;1.05;;;;;;;;;;4959962;28;20510;-69
2023/10/25 08:03:40;;;;;;;1.08;0.90;;;;;;;;;;4959912;28;20109;-69
2023/10/25 08:06:09;;;;;;;0.90;0.90;;;;;;;;;;4959487;28;20444;-68
2023/10/25 08:08:34;;;;;;;1.00;0.90;;;;;;;;;;4958887;28;20070;-69
2023/10/25 08:11:05;;;;;;;1.58;1.42;;;;;;;;;;4960083;28;20536;-69
2023/10/25 08:13:33;;;;;;;1.55;1.45;;;;;;;;;;4960429;28;20054;-70
2023/10/25 08:16:00;;;;;;;1.60;1.50;;;;;;;;;;4959413;28;20054;-68
2023/10/25 08:18:30;;;;;;;1.60;1.50;;;;;;;;;;4966722;28;20050;-70
2023/10/25 08:20:57;;;;;;;1.00;1.00;;;;;;;;;;4977999;28;20034;-69
2023/10/25 08:23:22;;;;;;;1.05;1.00;;;;;;;;;;4965030;28;20104;-69
2023/10/25 08:25:48;;;;;;;1.20;1.10;;;;;;;;;;4959859;28;20058;-69
2023/10/25 08:28:14;;;;;;;2.28;1.50;;;;;;;;;;4958994;28;20043;-69
2023/10/25 08:30:39;;;;;;;1.63;1.40;;;;;;;;;;4959925;28;20082;-69
2023/10/25 08:33:05;;;;;;;2.15;1.50;;;;;;;;;;4959722;28;20081;-69
2023/10/25 08:35:31;;;;;;;1.60;1.50;;;;;;;;;;4960103;28;20137;-69
2023/10/25 08:37:56;;;;;;;1.63;1.52;;;;;;;;;;4958975;28;20121;-70
2023/10/25 08:40:25;;;;;;;1.33;1.23;;;;;;;;;;4959340;28;20038;-69
2023/10/25 08:42:50;;;;;;;1.33;1.20;;;;;;;;;;4959845;28;20074;-70
2023/10/25 08:45:16;;;;;;;1.92;1.10;;;;;;;;;;4959349;28;20085;-70
2023/10/25 08:47:43;;;;;;;1.00;1.00;;;;;;;;;;4959394;28;20061;-69
2023/10/25 08:50:09;;;;;;;2.10;0.98;;;;;;;;;;4958698;28;20046;-70
2023/10/25 08:52:37;;;;;;;1.27;1.00;;;;;;;;;;4949886;28;20038;-68
2023/10/25 08:55:07;;;;;;;0.80;0.80;;;;;;;;;;4959635;28;20507;-69
2023/10/25 08:57:35;;;;;;;1.92;1.13;;;;;;;;;;4959804;28;20051;-70
2023/10/25 09:00:01;;;;;;;2.28;1.00;;;;;;;;;;4959105;28;20058;-70
2023/10/25 09:02:26;;;;;;;0.82;0.82;;;;;;;;;;4958893;28;20105;-68
2023/10/25 09:04:56;;;;;;;1.40;0.70;;;;;;;;;;4958743;28;20137;-70
2023/10/25 09:07:42;;;;;;;1.65;0.73;;;;;;;;;;4959710;28;20050;-69
2023/10/25 09:10:13;;;;;;;0.65;0.65;;;;;;;;;;4995089;28;20054;-68
2023/10/25 09:12:38;;;;;;;3.17;0.87;;;;;;;;;;4982113;28;20112;-69
2023/10/25 09:15:04;;;;;;;1.15;0.70;;;;;;;;;;4982910;28;20051;-69
2023/10/25 09:17:31;;;;;;;0.73;0.73;;;;;;;;;;4982847;28;20490;-69
2023/10/25 09:19:57;;;;;;;0.85;0.80;;;;;;;;;;4981803;28;20050;-68
2023/10/25 09:22:26;;;;;;;1.80;0.98;;;;;;;;;;4981118;28;20065;-70
2023/10/25 09:25:00;;;;;;;1.00;0.90;;;;;;;;;;4983185;28;20054;-71
2023/10/25 09:27:26;;;;;;;0.95;0.90;;;;;;;;;;4982835;28;20042;-72
2023/10/25 09:29:51;;;;;;;2.95;0.88;;;;;;;;;;4981977;28;20061;-69
2023/10/25 09:32:19;;;;;;;0.60;0.60;;;;;;;;;;4982002;28;20125;-69
2023/10/25 09:34:48;;;;;;;0.80;0.80;;;;;;;;;;4982203;28;20133;-70
2023/10/25 09:37:15;;;;;;;0.70;0.70;;;;;;;;;;4982410;28;20047;-70
2023/10/25 09:39:41;;;;;;;0.80;0.70;;;;;;;;;;4981051;28;20102;-69
2023/10/25 09:42:12;;;;;;;0.80;0.80;;;;;;;;;;4962929;28;20099;-69
2023/10/25 09:44:47;;;;;;;0.70;0.70;;;;;;;;;;4962497;28;20051;-69
2023/10/25 09:47:15;;;;;;;0.70;0.70;;;;;;;;;;4961347;28;20595;-68
2023/10/25 09:49:43;;;;;;;1.35;0.80;;;;;;;;;;4961989;28;20047;-69
2023/10/25 09:52:19;;;;;;;0.80;0.80;;;;;;;;;;4962348;28;20043;-68
2023/10/25 09:54:51;;;;;;;0.80;0.80;;;;;;;;;;4963077;28;20161;-68
2023/10/25 09:57:17;;;;;;;0.82;0.82;;;;;;;;;;4961535;28;20047;-68
2023/10/25 09:59:44;;;;;;;0.93;0.93;;;;;;;;;;4962214;28;20492;-69
2023/10/25 10:02:19;;;;;;;1.17;0.93;;;;;;;;;;4961022;28;20408;-70
2023/10/25 10:04:56;;;;;;;0.85;0.85;;;;;;;;;;4963042;28;21089;-68
2023/10/25 10:07:37;;;;;;;1.08;0.98;;;;;;;;;;4961946;28;20061;-69
2023/10/25 10:10:14;;;;;;;1.17;0.95;;;;;;;;;;4960550;28;20050;-69
2023/10/25 10:12:39;;;;;;;0.95;0.90;;;;;;;;;;4962579;28;20121;-69
2023/10/25 10:15:06;;;;;;;1.38;1.27;;;;;;;;;;4962185;28;20058;-69
2023/10/25 10:17:34;;;;;;;1.17;0.95;;;;;;;;;;4962070;28;20069;-69
2023/10/25 10:20:04;;;;;;;1.70;1.60;;;;;;;;;;4961150;28;20114;-70
2023/10/25 10:22:29;;;;;;;2.35;1.02;;;;;;;;;;4962308;28;20053;-71
2023/10/25 10:25:00;;;;;;;1.13;0.80;;;;;;;;;;4961091;28;20046;-71
2023/10/25 10:27:52;;;;;;;0.80;0.80;;;;;;;;;;4960659;28;20047;-70
2023/10/25 10:30:30;;;;;;;0.82;0.80;;;;;;;;;;4972497;28;20050;-69
2023/10/25 10:32:56;;;;;;;1.20;0.70;;;;;;;;;;4971713;28;20073;-70
2023/10/25 10:35:22;;;;;;;2.45;0.75;;;;;;;;;;4980044;28;20054;-70
2023/10/25 10:37:57;;;;;;;1.40;0.63;;;;;;;;;;4979422;28;20050;-70
2023/10/25 10:40:23;;;;;;;0.70;0.70;;;;;;;;;;4973859;28;20082;-69
2023/10/25 10:42:48;;;;;;;0.70;0.70;;;;;;;;;;4962048;28;20725;-70
2023/10/25 10:45:19;;;;;;;0.60;0.60;;;;;;;;;;4961901;28;20129;-70
2023/10/25 10:48:12;;;;;;;2.28;0.60;;;;;;;;;;4961247;28;20105;-70
2023/10/25 10:50:39;;;;;;;0.60;0.60;;;;;;;;;;4960837;28;20047;-70
2023/10/25 10:53:04;;;;;;;0.70;0.70;;;;;;;;;;4959756;28;20051;-70
2023/10/25 10:55:30;;;;;;;0.68;0.68;;;;;;;;;;4962190;28;20136;-70
2023/10/25 10:57:56;;;;;;;0.77;0.77;;;;;;;;;;4961044;28;20058;-70
2023/10/25 11:00:22;;;;;;;0.90;0.80;;;;;;;;;;4961311;28;20054;-70
2023/10/25 11:02:49;;;;;;;0.73;0.73;;;;;;;;;;4961006;28;20041;-71
2023/10/25 11:05:16;;;;;;;0.70;0.70;;;;;;;;;;4961236;28;20054;-70
2023/10/25 11:07:42;;;;;;;0.80;0.80;;;;;;;;;;4960386;28;20058;-71
2023/10/25 11:10:08;;;;;;;0.90;0.90;;;;;;;;;;4960999;28;20059;-71
2023/10/25 11:12:34;;;;;;;0.70;0.70;;;;;;;;;;4959119;28;20121;-70
2023/10/25 11:15:06;;;;;;;1.00;1.00;;;;;;;;;;4961735;28;20153;-70
2023/10/25 11:17:34;;;;;;;0.80;0.80;;;;;;;;;;4960157;28;20050;-71
2023/10/25 11:20:00;;;;;;;1.17;1.00;;;;;;;;;;4960639;28;20085;-70
2023/10/25 11:22:25;;;;;;;0.80;0.80;;;;;;;;;;4961052;28;20043;-70
2023/10/25 11:24:52;;;;;;;1.05;0.95;;;;;;;;;;4960779;28;20089;-70
2023/10/25 11:27:18;;;;;;;1.00;1.00;;;;;;;;;;4960702;28;20078;-70
2023/10/25 11:29:44;;;;;;;0.90;0.90;;;;;;;;;;4960261;28;20172;-69
2023/10/25 11:32:14;;;;;;;0.80;0.80;;;;;;;;;;4953776;28;20050;-70
2023/10/25 11:34:43;;;;;;;0.90;0.90;;;;;;;;;;4959365;28;20046;-70
2023/10/25 11:37:09;;;;;;;0.80;0.80;;;;;;;;;;4960040;28;20418;-71
2023/10/25 11:39:56;;;;;;;1.20;1.00;;;;;;;;;;4975730;28;20042;-75
2023/10/25 11:42:22;;;;;;;0.90;0.90;;;;;;;;;;4960083;28;20050;-70
2023/10/25 11:44:48;;;;;;;1.00;0.82;;;;;;;;;;4960337;28;20042;-70
2023/10/25 11:47:18;;;;;;;0.82;0.82;;;;;;;;;;4959501;28;20042;-69
2023/10/25 11:49:43;;;;;;;0.90;0.90;;;;;;;;;;4959637;28;20630;-71
2023/10/25 11:52:09;;;;;;;0.82;0.82;;;;;;;;;;4959654;28;20142;-71
2023/10/25 11:54:34;;;;;;;1.02;1.00;;;;;;;;;;4960769;28;20097;-69
2023/10/25 11:57:00;;;;;;;0.82;0.82;;;;;;;;;;4959885;28;20050;-69
2023/10/25 11:59:25;;;;;;;0.68;0.68;;;;;;;;;;4959790;28;20047;-69
2023/10/25 12:01:50;;;;;;;0.60;0.60;;;;;;;;;;4959451;28;20063;-69
2023/10/25 12:04:16;;;;;;;3.78;0.88;;;;;;;;;;4959495;28;20404;-69
2023/10/25 12:06:41;;;;;;;1.10;1.00;;;;;;;;;;4959524;28;20476;-70
2023/10/25 12:09:07;;;;;;;1.10;0.90;;;;;;;;;;4959772;28;20576;-70
2023/10/25 12:11:32;;;;;;;1.40;0.90;;;;;;;;;;4958175;28;20050;-70
2023/10/25 12:13:58;;;;;;;0.90;0.90;;;;;;;;;;4959364;28;20098;-73
2023/10/25 12:16:23;;;;;;;0.90;0.90;;;;;;;;;;4957886;28;20054;-68
2023/10/25 12:18:49;;;;;;;1.50;0.93;;;;;;;;;;4959126;28;20042;-68
2023/10/25 12:21:14;;;;;;;0.85;0.85;;;;;;;;;;4959535;28;20117;-70
2023/10/25 12:23:40;;;;;;;1.30;0.90;;;;;;;;;;4958433;28;21055;-70
2023/10/25 12:26:06;;;;;;;1.05;1.02;;;;;;;;;;4973020;28;20082;-69
2023/10/25 12:28:31;;;;;;;2.72;1.00;;;;;;;;;;4958322;28;20500;-68
2023/10/25 12:30:57;;;;;;;5.18;0.93;;;;;;;;;;4958352;28;20113;-69
2023/10/25 12:33:22;;;;;;;0.90;0.90;;;;;;;;;;4958683;28;20046;-70
2023/10/25 12:35:49;;;;;;;1.10;1.00;;;;;;;;;;4958776;28;20058;-69
2023/10/25 12:38:15;;;;;;;0.90;0.90;;;;;;;;;;4959000;28;20043;-70
2023/10/25 12:40:40;;;;;;;0.60;0.60;;;;;;;;;;4957993;28;20428;-69
2023/10/25 12:43:06;;;;;;;0.73;0.73;;;;;;;;;;4959278;28;20078;-70
2023/10/25 12:45:31;;;;;;;0.70;0.70;;;;;;;;;;4959930;28;20141;-69
2023/10/25 12:47:57;;;;;;;0.80;0.80;;;;;;;;;;4958984;28;20047;-70
2023/10/25 12:50:24;;;;;;;0.70;0.70;;;;;;;;;;4959593;28;20206;-71
2023/10/25 12:52:49;;;;;;;0.50;0.50;;;;;;;;;;4958986;28;20042;-70
2023/10/25 12:55:16;;;;;;;2.85;0.70;;;;;;;;;;4959205;28;20141;-69
2023/10/25 12:57:42;;;;;;;0.60;0.60;;;;;;;;;;4959366;28;20042;-70
2023/10/25 13:00:10;;;;;;;0.63;0.63;;;;;;;;;;4959761;28;20571;-70
2023/10/25 13:02:36;;;;;;;0.60;0.60;;;;;;;;;;4954862;28;20415;-71
2023/10/25 13:05:02;;;;;;;0.60;0.60;;;;;;;;;;4958868;28;20522;-71
2023/10/25 13:07:29;;;;;;;1.05;0.88;;;;;;;;;;4959011;28;20054;-70
2023/10/25 13:09:54;;;;;;;0.95;0.70;;;;;;;;;;4958895;28;20089;-71
2023/10/25 13:12:20;;;;;;;0.60;0.60;;;;;;;;;;4959062;28;21045;-70
2023/10/25 13:14:45;;;;;;;0.70;0.70;;;;;;;;;;4958767;28;20039;-70
2023/10/25 13:17:10;;;;;;;0.45;0.45;;;;;;;;;;4959197;28;20046;-70
2023/10/25 13:19:36;;;;;;;0.30;0.30;;;;;;;;;;4958248;28;20058;-71
2023/10/25 13:22:01;;;;;;;0.40;0.40;;;;;;;;;;4959330;28;20081;-70
2023/10/25 13:24:27;;;;;;;0.50;0.50;;;;;;;;;;4958333;28;20161;-71
2023/10/25 13:26:52;;;;;;;0.50;0.50;;;;;;;;;;4959304;28;20096;-70
2023/10/25 13:29:18;;;;;;;0.43;0.40;;;;;;;;;;4957337;28;20057;-70
2023/10/25 13:31:43;;;;;;;0.52;0.52;;;;;;;;;;4957370;28;20085;-71
2023/10/25 13:34:09;;;;;;;0.40;0.40;;;;;;;;;;4959162;28;20547;-70
2023/10/25 13:36:34;;;;;;;0.30;0.30;;;;;;;;;;4958361;28;20162;-71
2023/10/25 13:38:59;;;;;;;0.40;0.40;;;;;;;;;;4957531;28;20054;-69
2023/10/25 13:41:25;;;;;;;0.20;0.20;;;;;;;;;;4958879;28;20086;-69
2023/10/25 13:43:50;;;;;;;0.75;0.40;;;;;;;;;;4958038;28;20047;-69
2023/10/25 13:46:16;;;;;;;0.20;0.20;;;;;;;;;;4958333;28;20078;-69
2023/10/25 13:48:43;;;;;;;0.32;0.32;;;;;;;;;;4957878;28;20925;-70
2023/10/25 13:51:08;;;;;;;3.03;0.35;;;;;;;;;;4959476;28;20061;-70
2023/10/25 13:53:35;;;;;;;0.43;0.43;;;;;;;;;;4958524;28;20043;-70
2023/10/25 13:56:02;;;;;;;0.40;0.30;;;;;;;;;;4964429;28;20046;-70
2023/10/25 13:58:29;;;;;;;2.00;0.32;;;;;;;;;;4980653;28;20081;-69
2023/10/25 14:00:54;;;;;;;0.50;0.50;;;;;;;;;;4982088;28;20578;-71
2023/10/25 14:03:20;;;;;;;0.30;0.30;;;;;;;;;;4981464;28;20042;-69
2023/10/25 14:05:46;;;;;;;0.40;0.40;;;;;;;;;;4981115;28;20046;-70
2023/10/25 14:08:11;;;;;;;1.73;0.40;;;;;;;;;;4981260;28;20066;-70
2023/10/25 14:10:47;;;;;;;0.38;0.38;;;;;;;;;;4980934;28;20054;-69
2023/10/25 14:13:12;;;;;;;2.05;0.70;;;;;;;;;;4981587;28;20045;-69
2023/10/25 14:15:39;;;;;;;0.60;0.60;;;;;;;;;;4980460;28;20058;-70
2023/10/25 14:18:07;;;;;;;0.30;0.30;;;;;;;;;;4962113;28;20158;-69
2023/10/25 14:20:37;;;;;;;0.40;0.40;;;;;;;;;;4961214;28;20058;-69
2023/10/25 14:23:03;;;;;;;0.40;0.40;;;;;;;;;;4962398;28;20185;-69
2023/10/25 14:25:28;;;;;;;0.77;0.60;;;;;;;;;;4962100;28;20125;-70
2023/10/25 14:27:54;;;;;;;0.30;0.30;;;;;;;;;;4961064;28;20750;-69
2023/10/25 14:30:19;;;;;;;3.80;0.30;;;;;;;;;;4961535;28;20050;-70
2023/10/25 14:32:45;;;;;;;0.55;0.55;;;;;;;;;;4959949;28;20045;-69
2023/10/25 14:35:11;;;;;;;0.40;0.40;;;;;;;;;;4962191;28;20069;-70
2023/10/25 14:37:36;;;;;;;0.47;0.47;;;;;;;;;;4960722;28;20859;-70
2023/10/25 14:40:04;;;;;;;0.60;0.60;;;;;;;;;;4961365;28;20071;-69
2023/10/25 14:42:30;;;;;;;0.73;0.73;;;;;;;;;;4959323;28;20031;-69